Time;durP1;ratioP1;P1;durP2;ratioP2;P2;SDS_P1;SDS_P2;PMS_P1;PMS_P2;Temp;Humidity;BMP_temperature;BMP_pressure;BME280_temperature;BME280_humidity;BME280_pressure;Samples;Min_cycle;Max_cycle;Signal;HPM_P1;HPM_P2
2022/11/11 00:03:09;;;;;;;17.50;11.90;;;23.70;48.10;;;;;;7711659;22;84681;-57
2022/11/11 00:06:28;;;;;;;15.70;10.82;;;23.70;48.10;;;;;;7712447;22;84383;-56
2022/11/11 00:09:47;;;;;;;18.10;11.02;;;23.70;48.10;;;;;;7709496;22;83014;-57
2022/11/11 00:13:06;;;;;;;16.80;10.80;;;23.70;48.10;;;;;;7709867;22;82918;-56
2022/11/11 00:25:04;;;;;;;16.73;10.63;;;23.70;48.10;;;;;;7710981;22;83329;-56
2022/11/11 00:27:20;;;;;;;15.90;10.52;;;23.70;48.00;;;;;;7713108;22;82972;-57
2022/11/11 00:30:40;;;;;;;15.52;10.77;;;23.70;48.10;;;;;;7709420;22;84305;-58
2022/11/11 00:33:59;;;;;;;16.40;11.23;;;23.70;48.00;;;;;;7711300;22;83318;-58
2022/11/11 00:37:18;;;;;;;16.52;10.45;;;23.70;48.10;;;;;;7708736;22;83843;-58
2022/11/11 00:40:37;;;;;;;13.82;9.55;;;23.60;48.00;;;;;;7711098;22;83075;-58
2022/11/11 00:43:56;;;;;;;13.10;9.32;;;23.60;48.00;;;;;;7714495;22;81602;-57
2022/11/11 00:50:59;;;;;;;13.55;9.20;;;23.60;48.00;;;;;;7713696;22;84433;-55
2022/11/11 00:54:18;;;;;;;15.90;9.50;;;23.60;48.00;;;;;;7712901;22;80142;-57
2022/11/11 00:57:37;;;;;;;16.42;10.13;;;23.60;47.90;;;;;;7715252;22;80565;-57
2022/11/11 01:00:56;;;;;;;16.95;9.85;;;23.60;47.90;;;;;;7708826;22;83074;-61
2022/11/11 01:04:15;;;;;;;14.93;9.98;;;23.70;48.10;;;;;;7713268;22;83204;-61
2022/11/11 01:07:34;;;;;;;16.67;9.13;;;23.60;48.10;;;;;;7711118;22;82703;-62
2022/11/11 01:10:53;;;;;;;16.25;9.45;;;23.60;48.00;;;;;;7712258;22;83747;-61
2022/11/11 01:14:12;;;;;;;13.90;9.43;;;23.60;47.90;;;;;;7714419;22;80656;-60
2022/11/11 01:17:31;;;;;;;14.93;8.75;;;23.60;47.80;;;;;;7716214;22;84647;-60
2022/11/11 01:20:50;;;;;;;13.75;8.75;;;23.60;47.80;;;;;;7716644;22;82459;-60
2022/11/11 01:24:09;;;;;;;13.93;9.32;;;23.60;48.00;;;;;;7713643;22;81676;-60
2022/11/11 01:27:28;;;;;;;14.45;9.23;;;23.60;47.80;;;;;;7715685;22;80714;-61
2022/11/11 01:30:47;;;;;;;13.85;9.35;;;23.60;48.00;;;;;;7714224;22;80144;-61
2022/11/11 01:34:06;;;;;;;14.48;9.07;;;23.60;47.70;;;;;;7714123;22;80026;-61
2022/11/11 01:37:25;;;;;;;15.35;9.27;;;23.60;47.80;;;;;;7716520;22;80359;-62
2022/11/11 01:40:44;;;;;;;14.45;9.32;;;23.60;47.90;;;;;;7713854;22;80362;-61
2022/11/11 01:44:03;;;;;;;14.85;8.95;;;23.60;47.80;;;;;;7713741;22;80612;-61
2022/11/11 01:49:17;;;;;;;14.07;9.07;;;23.60;47.90;;;;;;7715969;22;79978;-62
2022/11/11 01:51:01;;;;;;;18.52;10.52;;;23.60;47.90;;;;;;7715414;22;84618;-61
2022/11/11 01:54:20;;;;;;;15.63;10.05;;;23.60;47.80;;;;;;7712241;22;83118;-61
2022/11/11 01:57:39;;;;;;;15.52;9.52;;;23.60;47.80;;;;;;7713425;22;82599;-58
2022/11/11 02:00:58;;;;;;;15.75;9.55;;;23.60;47.80;;;;;;7714826;22;82601;-55
2022/11/11 02:07:55;;;;;;;15.65;10.35;;;23.60;47.90;;;;;;7714963;22;84105;-56
2022/11/11 02:11:15;;;;;;;17.17;10.20;;;23.50;47.70;;;;;;7708694;22;83268;-56
2022/11/11 02:14:38;;;;;;;18.92;10.88;;;23.50;47.80;;;;;;7709638;22;87296;-55
2022/11/11 02:17:57;;;;;;;15.63;9.85;;;23.50;47.80;;;;;;7711478;22;82916;-56
2022/11/11 02:21:16;;;;;;;15.40;9.13;;;23.50;47.80;;;;;;7715543;22;83067;-55
2022/11/11 02:24:35;;;;;;;18.23;11.02;;;23.50;48.00;;;;;;7712794;22;81637;-56
2022/11/11 02:27:54;;;;;;;14.45;9.82;;;23.50;47.90;;;;;;7710828;22;82795;-56
2022/11/11 02:31:13;;;;;;;17.85;10.05;;;23.50;48.00;;;;;;7712560;22;87015;-55
2022/11/11 02:34:33;;;;;;;17.30;10.32;;;23.50;48.00;;;;;;7711828;22;83910;-56
2022/11/11 02:37:52;;;;;;;19.17;11.15;;;23.50;48.00;;;;;;7711774;22;84639;-57
2022/11/11 02:44:48;;;;;;;16.92;9.95;;;23.50;48.00;;;;;;7709885;22;87155;-55
2022/11/11 02:48:08;;;;;;;17.15;9.82;;;23.50;48.00;;;;;;7713715;22;82560;-57
2022/11/11 02:51:27;;;;;;;15.50;10.13;;;23.50;48.10;;;;;;7714351;22;80728;-63
2022/11/11 02:54:47;;;;;;;17.35;10.75;;;23.60;48.10;;;;;;7709589;22;82815;-63
2022/11/11 02:58:06;;;;;;;16.30;9.65;;;23.50;48.10;;;;;;7712753;22;83167;-62
2022/11/11 03:01:25;;;;;;;15.45;9.73;;;23.50;48.10;;;;;;7716892;22;82465;-62
2022/11/11 03:04:44;;;;;;;15.98;9.63;;;23.60;48.10;;;;;;7693172;22;80577;-61
2022/11/11 03:08:03;;;;;;;17.48;10.43;;;23.50;48.10;;;;;;7715123;22;81391;-62
2022/11/11 03:11:28;;;;;;;15.77;10.43;;;23.50;47.90;;;;;;7710484;22;82701;-62
2022/11/11 03:14:47;;;;;;;16.42;10.25;;;23.50;48.00;;;;;;7710602;22;86819;-62
2022/11/11 03:18:07;;;;;;;15.70;9.95;;;23.50;47.90;;;;;;7710299;22;83103;-62
2022/11/11 03:21:26;;;;;;;15.55;9.65;;;23.50;48.00;;;;;;7715060;22;82604;-64
2022/11/11 03:28:23;;;;;;;18.40;10.50;;;23.50;48.40;;;;;;7712377;22;80396;-64
2022/11/11 03:31:42;;;;;;;16.10;10.40;;;23.50;48.10;;;;;;7712824;22;83230;-63
2022/11/11 03:35:01;;;;;;;16.52;10.05;;;23.50;48.00;;;;;;7710810;22;82709;-63
2022/11/11 03:38:23;;;;;;;15.38;9.85;;;23.50;48.00;;;;;;7712105;22;83610;-63
2022/11/11 03:41:43;;;;;;;15.68;10.05;;;23.50;48.00;;;;;;7714287;22;87385;-64
2022/11/11 03:45:02;;;;;;;17.52;10.77;;;23.50;48.00;;;;;;7711474;22;83575;-64
2022/11/11 03:48:21;;;;;;;13.50;9.48;;;23.50;48.00;;;;;;7711265;22;84374;-63
2022/11/11 03:51:40;;;;;;;16.63;9.80;;;23.50;48.00;;;;;;7717301;22;82931;-63
2022/11/11 03:54:59;;;;;;;17.02;9.85;;;23.50;48.00;;;;;;7713923;22;81367;-63
2022/11/11 03:58:18;;;;;;;14.65;9.50;;;23.50;47.90;;;;;;7716503;22;80570;-63
2022/11/11 04:16:04;;;;;;;19.67;10.40;;;23.50;48.00;;;;;;7711974;22;83289;-62
2022/11/11 04:16:10;;;;;;;13.55;9.07;;;23.50;48.00;;;;;;7711317;22;82579;-63
2022/11/11 04:23:07;;;;;;;15.82;10.32;;;23.50;48.10;;;;;;7709745;22;83021;-58
2022/11/11 04:26:26;;;;;;;17.52;10.82;;;23.50;48.00;;;;;;7709239;22;82799;-58
2022/11/11 04:29:50;;;;;;;15.35;10.13;;;23.60;48.00;;;;;;7711556;22;87087;-58
2022/11/11 04:33:09;;;;;;;12.63;8.55;;;23.60;48.10;;;;;;7711051;22;82904;-59
2022/11/11 04:36:28;;;;;;;14.52;9.80;;;23.60;48.10;;;;;;7713602;22;82583;-58
2022/11/11 04:43:25;;;;;;;13.68;8.45;;;23.70;48.20;;;;;;7714428;22;80859;-61
2022/11/11 04:46:44;;;;;;;14.43;9.00;;;23.70;48.20;;;;;;7711009;22;80537;-62
2022/11/11 04:50:03;;;;;;;19.85;9.45;;;23.80;48.30;;;;;;7715026;22;81059;-61
2022/11/11 04:53:22;;;;;;;12.63;8.98;;;23.80;48.50;;;;;;7715076;22;81350;-61
2022/11/11 04:56:48;;;;;;;12.25;8.93;;;23.80;48.70;;;;;;7716383;22;85100;-61
2022/11/11 05:00:07;;;;;;;15.38;9.23;;;23.80;48.90;;;;;;7715650;22;81317;-61
2022/11/11 05:03:26;;;;;;;14.27;9.05;;;23.80;48.60;;;;;;7711906;22;82150;-61
2022/11/11 05:10:23;;;;;;;12.27;8.05;;;23.90;49.00;;;;;;7717480;22;80775;-59
2022/11/11 05:25:37;;;;;;;13.15;7.82;;;24.00;49.40;;;;;;7715771;22;80228;-57
2022/11/11 05:28:25;;;;;;;11.48;8.20;;;23.90;49.30;;;;;;7681409;22;80912;-53
2022/11/11 05:31:44;;;;;;;17.70;9.57;;;24.00;49.70;;;;;;7709480;22;81228;-54
2022/11/11 05:35:03;;;;;;;18.13;9.93;;;23.90;49.00;;;;;;7713518;22;80409;-53
2022/11/11 05:38:22;;;;;;;17.92;11.07;;;23.90;48.60;;;;;;7718420;22;80625;-59
2022/11/11 05:41:41;;;;;;;18.67;11.75;;;23.90;48.00;;;;;;7707117;22;82824;-58
2022/11/11 05:45:00;;;;;;;27.15;13.52;;;23.80;47.30;;;;;;7704069;22;83690;-61
2022/11/11 05:48:19;;;;;;;30.25;13.88;;;23.70;47.10;;;;;;7707540;22;83610;-61
2022/11/11 05:51:38;;;;;;;21.60;14.10;;;23.70;46.80;;;;;;7704411;22;82799;-63
2022/11/11 05:54:57;;;;;;;21.05;13.90;;;23.70;46.80;;;;;;7704575;22;87310;-55
2022/11/11 05:58:16;;;;;;;23.23;14.32;;;23.60;46.60;;;;;;7704726;22;82975;-54
2022/11/11 06:01:35;;;;;;;23.67;13.63;;;23.60;46.40;;;;;;7712180;22;82631;-58
2022/11/11 06:04:54;;;;;;;21.73;13.07;;;23.60;47.00;;;;;;7710651;22;83169;-51
2022/11/11 06:08:13;;;;;;;23.48;13.45;;;23.60;46.90;;;;;;7711271;22;83881;-55
2022/11/11 06:11:32;;;;;;;20.38;13.32;;;23.60;46.90;;;;;;7709968;22;83030;-57
2022/11/11 06:14:51;;;;;;;21.02;13.25;;;23.60;47.70;;;;;;7711007;22;82700;-55
2022/11/11 06:18:10;;;;;;;26.80;13.52;;;23.60;47.50;;;;;;7712323;22;83017;-56
2022/11/11 06:21:30;;;;;;;28.45;13.23;;;23.60;47.80;;;;;;7711169;22;83373;-59
2022/11/11 06:26:11;;;;;;;18.58;11.73;;;23.60;47.70;;;;;;7709162;22;87143;-57
2022/11/11 06:28:27;;;;;;;21.65;10.82;;;23.60;48.40;;;;;;7710883;22;82613;-57
2022/11/11 06:31:46;;;;;;;27.40;11.38;;;23.70;49.00;;;;;;7710504;22;83253;-58
2022/11/11 06:35:05;;;;;;;31.38;12.25;;;23.70;48.90;;;;;;7703187;22;83128;-58
2022/11/11 06:38:24;;;;;;;32.88;11.38;;;23.70;49.40;;;;;;7691996;22;83907;-58
2022/11/11 06:41:43;;;;;;;25.02;10.93;;;23.70;49.60;;;;;;7659332;22;84089;-59
2022/11/11 06:45:02;;;;;;;22.00;10.77;;;23.70;49.90;;;;;;7667546;22;84391;-59
2022/11/11 06:48:21;;;;;;;23.52;10.65;;;23.70;49.60;;;;;;7660992;22;83247;-60
2022/11/11 06:51:40;;;;;;;18.48;10.00;;;23.70;50.00;;;;;;7658918;22;83816;-59
2022/11/11 06:54:59;;;;;;;19.88;10.75;;;23.70;49.40;;;;;;7658480;22;87224;-59
2022/11/11 06:58:18;;;;;;;26.58;9.68;;;23.70;49.80;;;;;;7669030;22;83383;-57
2022/11/11 07:01:37;;;;;;;16.75;9.52;;;23.80;50.20;;;;;;7672618;22;82509;-58
2022/11/11 07:04:56;;;;;;;16.30;9.52;;;23.80;50.20;;;;;;7675434;22;80981;-58
2022/11/11 07:08:16;;;;;;;17.75;10.05;;;23.80;50.40;;;;;;7676445;22;81255;-56
2022/11/11 07:11:35;;;;;;;17.98;10.18;;;23.80;50.50;;;;;;7672937;22;82892;-57
2022/11/11 07:14:54;;;;;;;16.88;9.27;;;23.80;50.60;;;;;;7672462;22;83145;-57
2022/11/11 07:18:13;;;;;;;19.15;8.85;;;23.80;50.80;;;;;;7675496;22;83593;-56
2022/11/11 07:21:32;;;;;;;15.60;9.68;;;23.80;50.50;;;;;;7676740;22;80561;-54
2022/11/11 07:24:51;;;;;;;16.13;9.43;;;23.80;50.60;;;;;;7676384;22;83525;-57
2022/11/11 07:28:10;;;;;;;19.10;8.98;;;23.90;50.50;;;;;;7676873;22;80199;-52
2022/11/11 07:31:29;;;;;;;15.98;9.27;;;23.90;50.30;;;;;;7677160;22;81474;-55
2022/11/11 07:34:51;;;;;;;20.33;8.95;;;23.90;50.40;;;;;;7676031;22;81072;-57
2022/11/11 07:38:10;;;;;;;14.63;8.68;;;23.90;50.20;;;;;;7677305;22;80482;-58
2022/11/11 07:41:29;;;;;;;19.23;9.52;;;24.00;50.20;;;;;;7677983;22;80347;-56
2022/11/11 07:44:48;;;;;;;14.77;9.88;;;24.00;50.10;;;;;;7673921;22;81040;-60
2022/11/11 07:48:07;;;;;;;17.33;9.63;;;24.00;50.40;;;;;;7673937;22;80287;-60
2022/11/11 07:51:26;;;;;;;16.10;8.82;;;24.00;50.60;;;;;;7678888;22;80351;-59
2022/11/11 07:54:45;;;;;;;12.60;8.32;;;24.00;50.70;;;;;;7677025;22;84462;-59
2022/11/11 07:58:05;;;;;;;16.30;8.95;;;24.10;50.90;;;;;;7677160;22;80323;-65
2022/11/11 08:01:24;;;;;;;13.35;8.40;;;24.10;50.90;;;;;;7677646;22;80647;-60
2022/11/11 08:04:44;;;;;;;12.68;8.27;;;24.20;50.80;;;;;;7665045;22;80109;-58
2022/11/11 08:08:04;;;;;;;18.23;9.38;;;24.20;50.70;;;;;;7676147;22;80716;-55
2022/11/11 08:15:01;;;;;;;63.65;30.60;;;24.30;50.50;;;;;;7676769;22;82742;-60
2022/11/11 08:18:20;;;;;;;62.67;34.40;;;24.40;50.70;;;;;;7671343;22;83709;-59
2022/11/11 08:21:39;;;;;;;107.72;46.05;;;24.40;50.50;;;;;;7673137;22;83106;-58
2022/11/11 08:24:58;;;;;;;99.45;52.65;;;24.50;50.10;;;;;;7670240;22;87293;-59
2022/11/11 08:28:17;;;;;;;108.22;56.85;;;24.60;49.90;;;;;;7671245;22;83115;-58
2022/11/11 08:31:38;;;;;;;119.85;60.65;;;24.60;49.50;;;;;;7663125;22;84726;-58
2022/11/11 08:34:57;;;;;;;110.18;57.42;;;24.70;49.70;;;;;;7673837;22;82714;-58
2022/11/11 08:38:15;;;;;;;114.28;56.35;;;24.80;49.40;;;;;;7658894;22;83225;-59
2022/11/11 08:41:34;;;;;;;135.32;70.72;;;24.90;48.80;;;;;;7673592;22;83410;-62
2022/11/11 08:44:53;;;;;;;147.63;79.93;;;24.90;48.60;;;;;;7675101;22;83160;-61
2022/11/11 08:48:12;;;;;;;182.63;97.40;;;25.00;48.30;;;;;;7674097;22;83307;-60
2022/11/11 08:51:31;;;;;;;207.88;108.22;;;25.10;47.00;;;;;;7677222;22;83177;-60
2022/11/11 08:54:51;;;;;;;165.30;85.03;;;25.10;46.10;;;;;;7669072;22;86983;-65
2022/11/11 08:58:10;;;;;;;122.22;64.45;;;25.10;45.40;;;;;;7667275;22;84971;-61
2022/11/11 09:01:29;;;;;;;97.30;52.20;;;25.00;45.20;;;;;;7670172;22;84147;-60
2022/11/11 09:04:47;;;;;;;113.88;61.58;;;25.10;45.10;;;;;;7670301;22;83103;-59
2022/11/11 09:08:07;;;;;;;110.22;62.15;;;25.10;45.30;;;;;;7668462;22;83221;-58
2022/11/11 09:11:27;;;;;;;125.47;68.03;;;25.10;44.90;;;;;;7644500;22;83198;-57
2022/11/11 09:14:47;;;;;;;149.60;78.25;;;25.20;45.00;;;;;;7667522;22;83263;-57
2022/11/11 09:18:05;;;;;;;162.10;86.90;;;25.20;44.90;;;;;;7666034;22;82644;-62
2022/11/11 09:21:24;;;;;;;160.75;88.53;;;25.30;45.00;;;;;;7673358;22;84225;-61
2022/11/11 09:24:43;;;;;;;122.82;68.93;;;25.30;44.70;;;;;;7673329;22;86017;-67
2022/11/11 09:28:03;;;;;;;130.63;66.88;;;25.30;44.20;;;;;;7673763;22;82837;-62
2022/11/11 09:31:22;;;;;;;110.95;59.70;;;25.20;44.30;;;;;;7674216;22;82935;-61
2022/11/11 09:34:41;;;;;;;100.50;54.65;;;25.30;45.10;;;;;;7672381;22;82749;-59
2022/11/11 09:38:01;;;;;;;75.57;43.10;;;25.20;45.00;;;;;;7673819;22;83083;-60
2022/11/11 09:41:20;;;;;;;86.82;47.15;;;25.20;44.90;;;;;;7675118;22;82794;-61
2022/11/11 09:44:39;;;;;;;154.18;80.28;;;25.30;44.80;;;;;;7685606;22;83124;-61
2022/11/11 09:47:57;;;;;;;188.10;98.03;;;25.30;45.00;;;;;;7710940;22;82716;-63
2022/11/11 09:51:16;;;;;;;174.65;89.95;;;25.30;45.00;;;;;;7710803;22;82625;-68
2022/11/11 09:54:35;;;;;;;143.32;74.72;;;25.20;45.80;;;;;;7712745;22;82707;-62
2022/11/11 09:57:57;;;;;;;119.68;59.70;;;25.20;46.00;;;;;;7712348;22;85885;-64
2022/11/11 10:01:17;;;;;;;111.53;51.88;;;25.10;46.00;;;;;;7713760;22;82613;-63
2022/11/11 10:04:36;;;;;;;92.78;46.50;;;25.10;46.40;;;;;;7714584;22;82600;-70
2022/11/11 10:07:55;;;;;;;82.57;40.92;;;25.10;46.90;;;;;;7712506;22;84006;-64
2022/11/11 10:11:13;;;;;;;61.53;30.55;;;25.10;47.70;;;;;;7705336;22;83352;-63
2022/11/11 10:14:32;;;;;;;56.03;29.05;;;25.10;47.30;;;;;;7711570;22;83273;-66
2022/11/11 10:17:51;;;;;;;51.53;27.13;;;25.10;46.30;;;;;;7710649;22;82888;-61
2022/11/11 10:21:10;;;;;;;43.38;24.80;;;25.10;45.60;;;;;;7705960;22;83106;-61
2022/11/11 10:24:29;;;;;;;36.25;19.52;;;25.10;45.30;;;;;;7706600;22;83568;-61
2022/11/11 10:27:48;;;;;;;37.15;20.58;;;25.20;44.60;;;;;;7704680;22;86198;-63
2022/11/11 10:31:08;;;;;;;33.00;18.00;;;25.30;44.50;;;;;;7706820;22;83125;-61
2022/11/11 10:34:27;;;;;;;29.17;15.32;;;25.40;44.00;;;;;;7706613;22;82992;-60
2022/11/11 10:37:46;;;;;;;29.50;14.68;;;25.30;43.80;;;;;;7706426;22;83417;-62
2022/11/11 10:41:04;;;;;;;24.25;13.40;;;25.30;43.80;;;;;;7711220;22;83008;-70
2022/11/11 10:44:24;;;;;;;21.25;11.15;;;25.30;43.70;;;;;;7711522;22;83072;-71
2022/11/11 10:47:43;;;;;;;27.27;12.13;;;25.20;43.40;;;;;;7713152;22;83444;-64
2022/11/11 10:51:02;;;;;;;19.65;10.48;;;25.30;43.40;;;;;;7712592;22;82722;-62
2022/11/11 10:54:21;;;;;;;15.60;8.77;;;25.30;43.30;;;;;;7712787;22;82964;-64
2022/11/11 10:57:40;;;;;;;15.50;8.82;;;25.30;42.80;;;;;;7715383;22;82611;-68
2022/11/11 11:00:59;;;;;;;15.65;8.73;;;25.50;42.60;;;;;;7714521;22;84475;-62
2022/11/11 11:04:18;;;;;;;13.70;8.07;;;25.50;42.80;;;;;;7717462;22;80722;-62
2022/11/11 11:07:38;;;;;;;16.25;9.27;;;25.40;42.60;;;;;;7713855;22;80527;-61
2022/11/11 11:10:58;;;;;;;15.27;8.65;;;25.40;42.70;;;;;;7690718;22;80561;-63
2022/11/11 11:14:17;;;;;;;16.70;8.82;;;25.50;42.70;;;;;;7709503;22;80387;-62
2022/11/11 11:17:36;;;;;;;14.38;8.75;;;25.70;42.50;;;;;;7713669;22;80500;-64
2022/11/11 11:20:55;;;;;;;17.17;8.45;;;25.80;42.80;;;;;;7715545;22;80762;-63
2022/11/11 11:24:14;;;;;;;16.33;7.90;;;25.80;42.60;;;;;;7713891;22;80810;-60
2022/11/11 11:27:33;;;;;;;12.15;6.72;;;25.80;42.40;;;;;;7709515;22;81470;-59
2022/11/11 11:30:52;;;;;;;17.58;8.13;;;25.80;42.90;;;;;;7716975;22;84045;-59
2022/11/11 11:34:11;;;;;;;12.35;7.57;;;25.80;43.60;;;;;;7717838;22;79868;-60
2022/11/11 11:37:30;;;;;;;13.20;7.43;;;25.80;43.40;;;;;;7718562;22;80497;-58
2022/11/11 11:40:49;;;;;;;12.80;7.35;;;25.80;43.70;;;;;;7713626;22;81505;-58
2022/11/11 11:44:08;;;;;;;14.60;7.75;;;25.70;43.70;;;;;;7718147;22;81315;-63
2022/11/11 11:47:27;;;;;;;15.80;7.57;;;25.70;43.50;;;;;;7717901;22;81647;-62
2022/11/11 11:50:49;;;;;;;12.00;7.57;;;25.70;43.90;;;;;;7718203;22;81829;-65
2022/11/11 11:54:08;;;;;;;11.18;6.78;;;25.70;43.60;;;;;;7718655;22;80801;-64
2022/11/11 11:57:27;;;;;;;17.80;6.75;;;25.60;43.80;;;;;;7718874;22;79969;-69
2022/11/11 12:00:46;;;;;;;13.52;6.85;;;25.60;44.20;;;;;;7716554;22;84684;-63
2022/11/11 12:04:05;;;;;;;13.57;6.80;;;25.50;44.00;;;;;;7717958;22;80115;-60
2022/11/11 12:07:24;;;;;;;10.25;6.85;;;25.50;44.20;;;;;;7717330;22;80066;-61
2022/11/11 12:10:43;;;;;;;10.48;6.28;;;25.50;43.90;;;;;;7715669;22;79963;-61
2022/11/11 12:14:02;;;;;;;12.20;6.80;;;25.40;43.90;;;;;;7718391;22;80571;-66
2022/11/11 12:17:21;;;;;;;13.43;7.00;;;25.40;44.10;;;;;;7718352;22;80093;-61
2022/11/11 12:20:40;;;;;;;12.75;7.20;;;25.30;44.00;;;;;;7718476;22;79845;-59
2022/11/11 12:23:59;;;;;;;13.00;6.60;;;25.30;44.00;;;;;;7713096;22;80746;-59
2022/11/11 12:27:18;;;;;;;11.50;6.78;;;25.30;44.00;;;;;;7717677;22;80376;-59
2022/11/11 12:30:37;;;;;;;8.52;5.88;;;25.20;43.70;;;;;;7718402;22;81495;-59
2022/11/11 12:33:56;;;;;;;14.95;6.28;;;25.20;43.70;;;;;;7715098;22;83383;-59
2022/11/11 12:37:15;;;;;;;12.70;6.65;;;25.10;43.60;;;;;;7716539;22;80286;-60
2022/11/11 12:40:35;;;;;;;10.80;5.40;;;25.10;43.70;;;;;;7692716;22;80362;-60
2022/11/11 12:43:53;;;;;;;20.05;6.82;;;25.10;43.50;;;;;;7715633;22;80292;-59
2022/11/11 12:47:12;;;;;;;21.67;7.28;;;25.00;43.70;;;;;;7712101;22;82146;-59
2022/11/11 12:50:31;;;;;;;25.15;7.60;;;24.90;44.30;;;;;;7711519;22;80458;-59
2022/11/11 12:53:50;;;;;;;23.55;8.45;;;24.90;44.50;;;;;;7715178;22;81666;-59
2022/11/11 12:57:09;;;;;;;27.20;9.10;;;24.90;44.60;;;;;;7716338;22;80453;-66
2022/11/11 13:00:28;;;;;;;45.67;9.23;;;24.90;45.10;;;;;;7715703;22;80522;-65
2022/11/11 13:03:47;;;;;;;24.95;8.23;;;24.80;45.30;;;;;;7716144;22;83388;-65
2022/11/11 13:07:07;;;;;;;24.55;7.13;;;24.80;45.50;;;;;;7715283;22;80387;-68
2022/11/11 13:10:26;;;;;;;20.20;7.43;;;24.70;45.30;;;;;;7712064;22;80438;-68
2022/11/11 13:13:45;;;;;;;25.13;7.15;;;24.60;45.60;;;;;;7710007;22;81339;-65
2022/11/11 13:17:04;;;;;;;15.60;6.63;;;24.60;45.80;;;;;;7715235;22;80804;-65
2022/11/11 13:20:23;;;;;;;17.33;5.95;;;24.60;46.30;;;;;;7716807;22;80469;-66
2022/11/11 13:23:42;;;;;;;18.88;6.85;;;24.60;46.20;;;;;;7708206;22;81108;-68
2022/11/11 13:27:01;;;;;;;15.27;6.65;;;24.50;45.90;;;;;;7703588;22;80280;-66
2022/11/11 13:30:20;;;;;;;13.48;5.72;;;24.50;45.50;;;;;;7722181;22;80955;-67
2022/11/11 13:33:39;;;;;;;15.73;6.38;;;24.40;45.30;;;;;;7718422;22;80440;-70
2022/11/11 13:36:58;;;;;;;11.52;5.30;;;24.40;45.30;;;;;;7716196;22;84519;-68
2022/11/11 13:40:17;;;;;;;19.08;6.18;;;24.30;45.20;;;;;;7717105;22;80225;-67
2022/11/11 13:43:36;;;;;;;9.70;5.63;;;24.30;44.90;;;;;;7712850;22;80943;-66
2022/11/11 13:46:55;;;;;;;12.70;5.18;;;24.20;45.10;;;;;;7713158;22;80274;-69
2022/11/11 13:50:14;;;;;;;15.35;5.60;;;24.20;45.20;;;;;;7715945;22;81103;-67
2022/11/11 13:53:33;;;;;;;13.23;5.18;;;24.20;45.40;;;;;;7708228;22;80847;-66
2022/11/11 13:56:52;;;;;;;16.83;6.60;;;24.20;45.50;;;;;;7691714;22;80517;-67
2022/11/11 14:00:11;;;;;;;11.55;6.13;;;24.10;45.50;;;;;;7716011;22;81503;-68
2022/11/11 14:03:30;;;;;;;10.55;5.43;;;24.10;45.50;;;;;;7718160;22;81702;-66
2022/11/11 14:06:49;;;;;;;10.80;5.75;;;24.10;45.60;;;;;;7703602;22;83439;-66
2022/11/11 14:10:08;;;;;;;13.88;5.97;;;24.10;45.60;;;;;;7701121;22;80550;-67
2022/11/11 14:13:33;;;;;;;12.27;5.55;;;24.20;45.50;;;;;;7703358;22;80805;-65
2022/11/11 14:16:52;;;;;;;14.27;5.85;;;24.20;45.50;;;;;;7704306;22;80315;-65
2022/11/11 14:20:11;;;;;;;14.95;6.10;;;24.20;45.40;;;;;;7684071;22;81153;-65
2022/11/11 14:23:30;;;;;;;14.23;5.97;;;24.10;45.00;;;;;;7711296;22;81722;-66
2022/11/11 14:26:49;;;;;;;16.83;6.60;;;24.10;45.70;;;;;;7710435;22;80489;-68
2022/11/11 14:30:08;;;;;;;16.05;5.88;;;24.10;45.80;;;;;;7710188;22;80387;-67
2022/11/11 14:33:27;;;;;;;10.35;5.43;;;24.10;45.90;;;;;;7712492;22;80309;-63
2022/11/11 14:36:46;;;;;;;11.82;6.85;;;24.00;45.90;;;;;;7710833;22;84360;-63
2022/11/11 14:40:05;;;;;;;11.02;6.07;;;24.00;45.80;;;;;;7711037;22;80549;-66
2022/11/11 14:43:25;;;;;;;11.85;6.22;;;23.90;46.00;;;;;;7708832;22;80683;-65
2022/11/11 14:46:44;;;;;;;12.70;5.90;;;23.90;46.00;;;;;;7709663;22;80741;-58
2022/11/11 14:50:03;;;;;;;14.50;5.53;;;23.90;46.00;;;;;;7709187;22;81184;-61
2022/11/11 14:53:22;;;;;;;12.25;6.38;;;23.90;45.90;;;;;;7710487;22;81486;-59
2022/11/11 14:56:41;;;;;;;10.82;5.65;;;23.80;46.00;;;;;;7710354;22;80575;-57
2022/11/11 15:00:00;;;;;;;11.23;6.10;;;23.70;46.20;;;;;;7710905;22;80502;-58
2022/11/11 15:03:18;;;;;;;16.08;6.32;;;23.70;46.20;;;;;;7712159;22;79865;-60
2022/11/11 15:06:38;;;;;;;15.05;6.35;;;23.70;46.50;;;;;;7710417;22;80124;-66
2022/11/11 15:09:57;;;;;;;15.85;7.75;;;23.70;46.60;;;;;;7718516;22;83433;-66
2022/11/11 15:13:16;;;;;;;10.95;6.60;;;23.70;46.70;;;;;;7716652;22;80493;-62
2022/11/11 15:16:35;;;;;;;11.98;6.30;;;23.70;46.80;;;;;;7716540;22;80478;-62
2022/11/11 15:19:54;;;;;;;15.07;7.03;;;23.60;46.70;;;;;;7716575;22;80994;-62
2022/11/11 15:23:13;;;;;;;14.05;7.68;;;23.60;46.80;;;;;;7718899;22;80999;-64
2022/11/11 15:26:32;;;;;;;15.13;8.05;;;23.60;46.80;;;;;;7716890;22;80441;-65
2022/11/11 15:29:51;;;;;;;20.30;7.47;;;23.60;46.90;;;;;;7718297;22;80138;-62
2022/11/11 15:33:10;;;;;;;17.33;7.35;;;23.50;47.00;;;;;;7710698;22;80466;-61
2022/11/11 15:36:29;;;;;;;19.48;7.43;;;23.60;47.30;;;;;;7710784;22;80143;-61
2022/11/11 15:39:48;;;;;;;67.75;32.55;;;23.60;47.40;;;;;;7713557;22;84532;-60
2022/11/11 15:43:07;;;;;;;135.32;64.25;;;23.60;47.20;;;;;;7685524;22;83671;-59
2022/11/11 15:46:26;;;;;;;156.48;77.63;;;23.60;47.30;;;;;;7709930;22;82622;-62
2022/11/11 15:49:46;;;;;;;125.10;60.30;;;23.70;47.30;;;;;;7714581;22;83504;-58
2022/11/11 15:53:05;;;;;;;104.40;48.20;;;23.70;47.30;;;;;;7715676;22;82675;-61
2022/11/11 15:56:25;;;;;;;79.40;36.72;;;23.70;47.40;;;;;;7715915;22;84234;-61
2022/11/11 15:59:44;;;;;;;68.15;32.03;;;23.70;47.50;;;;;;7692931;22;82582;-61
2022/11/11 16:03:03;;;;;;;88.22;42.17;;;23.70;47.40;;;;;;7712743;22;82829;-63
2022/11/11 16:06:22;;;;;;;99.93;54.75;;;23.70;47.50;;;;;;7715757;22;82756;-61
2022/11/11 16:09:41;;;;;;;126.43;74.18;;;23.70;47.40;;;;;;7714470;22;82823;-64
2022/11/11 16:13:00;;;;;;;154.23;88.32;;;23.70;47.40;;;;;;7692761;22;87096;-61
2022/11/11 16:16:19;;;;;;;178.25;94.28;;;23.70;47.60;;;;;;7710813;22;83254;-62
2022/11/11 16:19:38;;;;;;;136.63;76.75;;;23.80;47.60;;;;;;7709878;22;83996;-62
2022/11/11 16:22:57;;;;;;;113.93;57.83;;;23.70;47.40;;;;;;7707225;22;83227;-61
2022/11/11 16:26:16;;;;;;;89.72;45.90;;;23.70;47.70;;;;;;7706849;22;83765;-62
2022/11/11 16:29:35;;;;;;;82.80;42.35;;;23.60;47.20;;;;;;7711437;22;84409;-62
2022/11/11 16:32:56;;;;;;;136.38;71.32;;;23.70;47.20;;;;;;7713558;22;82559;-60
2022/11/11 16:36:15;;;;;;;135.43;76.43;;;23.70;47.30;;;;;;7712890;22;84386;-59
2022/11/11 16:39:34;;;;;;;168.48;93.30;;;23.70;47.40;;;;;;7688947;22;83120;-62
2022/11/11 16:42:53;;;;;;;158.93;88.43;;;23.80;46.90;;;;;;7714773;22;87083;-63
2022/11/11 16:46:12;;;;;;;140.43;74.03;;;23.80;46.90;;;;;;7712513;22;82899;-63
2022/11/11 16:49:31;;;;;;;111.10;59.42;;;23.80;46.80;;;;;;7714007;22;83555;-63
2022/11/11 16:52:50;;;;;;;87.35;48.83;;;23.90;46.70;;;;;;7710693;22;83386;-64
2022/11/11 16:56:09;;;;;;;76.15;41.60;;;23.90;46.60;;;;;;7709210;22;83388;-67
2022/11/11 16:59:28;;;;;;;74.07;38.92;;;23.90;46.40;;;;;;7705994;22;83244;-69
2022/11/11 17:02:48;;;;;;;68.53;35.60;;;23.90;46.90;;;;;;7698054;22;83144;-66
2022/11/11 17:06:07;;;;;;;66.70;34.67;;;23.90;47.20;;;;;;7686929;22;82994;-67
2022/11/11 17:09:26;;;;;;;64.30;32.95;;;24.00;47.50;;;;;;7701736;22;83880;-66
2022/11/11 17:12:46;;;;;;;51.78;28.55;;;24.00;47.70;;;;;;7688955;22;87146;-67
2022/11/11 17:16:07;;;;;;;53.20;28.33;;;24.10;48.00;;;;;;7689723;22;83886;-64
2022/11/11 17:19:26;;;;;;;47.75;26.25;;;24.10;48.00;;;;;;7704834;22;83525;-60
2022/11/11 17:22:45;;;;;;;47.50;25.63;;;24.20;47.80;;;;;;7686742;22;83382;-63
2022/11/11 17:26:03;;;;;;;39.92;22.80;;;24.20;47.80;;;;;;7707238;22;83403;-60
2022/11/11 17:29:22;;;;;;;41.13;22.40;;;24.20;48.00;;;;;;7710559;22;83996;-58
2022/11/11 17:32:41;;;;;;;39.63;22.45;;;24.30;47.90;;;;;;7714607;22;84079;-55
2022/11/11 17:36:00;;;;;;;38.10;21.77;;;24.30;47.70;;;;;;7705217;22;83723;-56
2022/11/11 17:39:20;;;;;;;38.83;20.92;;;24.30;47.60;;;;;;7714616;22;83123;-56
2022/11/11 17:42:39;;;;;;;39.20;19.95;;;24.40;47.60;;;;;;7712843;22;83037;-55
2022/11/11 17:45:58;;;;;;;36.33;19.08;;;24.40;47.70;;;;;;7713634;22;87282;-58
2022/11/11 17:49:17;;;;;;;33.70;18.42;;;24.30;47.70;;;;;;7708228;22;83924;-58
2022/11/11 17:52:36;;;;;;;32.63;17.45;;;24.40;47.70;;;;;;7707715;22;83720;-58
2022/11/11 17:55:55;;;;;;;36.05;17.80;;;24.40;47.60;;;;;;7707827;22;83071;-59